createdAt,value
2023-03-26T00:03:12.184Z,97828.66
2023-03-26T00:08:16.602Z,97822.33
2023-03-26T00:13:23.516Z,97831.55
2023-03-26T00:18:30.332Z,97832.70
2023-03-26T00:23:35.252Z,97825.85
2023-03-26T00:28:38.468Z,97819.83
2023-03-26T00:33:42.689Z,97813.52
2023-03-26T00:38:47.186Z,97810.59
2023-03-26T00:44:09.357Z,97803.92
2023-03-26T00:49:14.840Z,97805.63
2023-03-26T00:54:36.700Z,97788.36
2023-03-26T00:59:39.463Z,97785.91
2023-03-26T01:04:45.250Z,97787.02
2023-03-26T01:09:50.493Z,97787.58
2023-03-26T01:14:56.660Z,97791.91
2023-03-26T01:20:26.817Z,97784.30
2023-03-26T01:25:34.462Z,97784.38
2023-03-26T01:30:42.693Z,97776.09
2023-03-26T01:36:18.125Z,97772.73
2023-03-26T01:41:45.138Z,97778.08
2023-03-26T01:46:48.723Z,97776.90
2023-03-26T01:51:51.348Z,97780.00
2023-03-26T01:57:17.597Z,97777.70
2023-03-26T02:02:42.859Z,97774.05
2023-03-26T02:07:52.138Z,97775.36
2023-03-26T02:12:54.799Z,97776.66
2023-03-26T02:17:56.583Z,97778.94
2023-03-26T02:22:59.956Z,97770.60
2023-03-26T02:28:02.813Z,97763.23
2023-03-26T02:33:04.880Z,97766.19
2023-03-26T02:38:14.583Z,97759.41
2023-03-26T02:43:17.072Z,97748.73
2023-03-26T02:48:20.405Z,97747.84
2023-03-26T02:53:30.915Z,97752.61
2023-03-26T02:59:02.097Z,97757.73
2023-03-26T03:04:04.531Z,97751.60
2023-03-26T03:09:12.846Z,97751.24
2023-03-26T03:14:35.020Z,97752.46
2023-03-26T03:19:37.821Z,97753.65
2023-03-26T03:24:39.990Z,97744.25
2023-03-26T03:29:41.735Z,97745.05
2023-03-26T03:35:18.979Z,97750.98
2023-03-26T03:40:23.957Z,97758.88
2023-03-26T03:45:26.936Z,97754.84
2023-03-26T03:50:47.431Z,97759.45
2023-03-26T03:56:02.000Z,97758.73
2023-03-26T04:06:18.776Z,97763.27
2023-03-26T04:11:23.947Z,97759.98
2023-03-26T04:16:42.617Z,97756.93
2023-03-26T04:21:44.644Z,97750.98
2023-03-26T04:26:48.190Z,97753.87
2023-03-26T04:31:58.670Z,97748.67
2023-03-26T04:37:02.607Z,97757.64
2023-03-26T04:42:12.044Z,97759.30
2023-03-26T04:47:24.273Z,97756.27
2023-03-26T04:52:26.379Z,97750.21
2023-03-26T04:57:53.118Z,97745.63
2023-03-26T05:03:15.791Z,97747.38
2023-03-26T05:08:18.647Z,97744.84
2023-03-26T05:13:20.862Z,97749.45
2023-03-26T05:18:24.842Z,97750.48
2023-03-26T05:23:27.964Z,97758.92
2023-03-26T05:28:40.594Z,97761.08
2023-03-26T05:34:11.575Z,97757.77
2023-03-26T05:39:14.296Z,97758.91
2023-03-26T05:50:07.650Z,97758.86
2023-03-26T05:55:11.340Z,97765.31
2023-03-26T06:00:43.348Z,97762.83
2023-03-26T06:05:46.792Z,97763.42
2023-03-26T06:11:04.588Z,97769.71
2023-03-26T06:16:27.319Z,97763.02
2023-03-26T06:21:50.498Z,97762.42
2023-03-26T06:26:56.601Z,97761.80
2023-03-26T06:32:06.407Z,97757.69
2023-03-26T06:37:22.848Z,97762.63
2023-03-26T06:43:06.689Z,97763.98
2023-03-26T06:48:17.475Z,97755.11
2023-03-26T06:53:30.962Z,97764.71
2023-03-26T06:58:45.908Z,97766.25
2023-03-26T07:04:06.190Z,97769.85
2023-03-26T07:09:30.345Z,97769.86
2023-03-26T07:14:55.941Z,97770.89
2023-03-26T07:20:16.922Z,97780.86
2023-03-26T07:25:20.503Z,97783.77
2023-03-26T07:30:55.446Z,97778.48
2023-03-26T07:36:29.585Z,97778.24
2023-03-26T07:42:23.451Z,97781.25
2023-03-26T07:47:45.238Z,97783.60
2023-03-26T07:52:53.943Z,97780.99
2023-03-26T07:59:03.597Z,97780.47
2023-03-26T08:04:50.995Z,97782.10
2023-03-26T08:11:07.536Z,97772.42
2023-03-26T08:16:45.662Z,97773.98
2023-03-26T08:22:02.176Z,97773.77
2023-03-26T08:27:21.852Z,97762.04
2023-03-26T08:32:25.436Z,97758.71
2023-03-26T08:37:27.840Z,97757.70
2023-03-26T08:42:45.333Z,97753.30
2023-03-26T08:48:03.354Z,97744.77
2023-03-26T08:53:17.657Z,97747.27
2023-03-26T08:58:36.436Z,97739.61
2023-03-26T09:04:03.091Z,97731.09
2023-03-26T09:09:33.073Z,97733.98
2023-03-26T09:14:53.164Z,97727.88
2023-03-26T09:20:25.227Z,97734.42
2023-03-26T09:25:51.729Z,97740.15
2023-03-26T09:31:11.943Z,97742.42
2023-03-26T09:36:32.122Z,97756.91
2023-03-26T09:41:53.705Z,97758.98
2023-03-26T09:47:07.454Z,97756.83
2023-03-26T09:52:35.642Z,97748.77
2023-03-26T09:57:59.305Z,97748.12
2023-03-26T10:03:58.926Z,97746.73
2023-03-26T10:09:29.785Z,97732.82
2023-03-26T10:15:16.687Z,97726.02
2023-03-26T10:20:43.113Z,97721.35
2023-03-26T10:26:09.607Z,97723.31
2023-03-26T10:31:47.354Z,97721.83
2023-03-26T10:37:04.089Z,97726.42
2023-03-26T10:42:38.574Z,97720.76
2023-03-26T10:48:11.358Z,97706.48
2023-03-26T10:53:33.517Z,97698.96
2023-03-26T10:58:49.306Z,97688.92
2023-03-26T11:04:14.231Z,97676.06
2023-03-26T11:09:46.740Z,97669.20
2023-03-26T11:15:03.858Z,97666.77
2023-03-26T11:20:17.466Z,97659.54
2023-03-26T11:25:51.402Z,97652.94
2023-03-26T11:31:13.028Z,97645.73
2023-03-26T11:36:22.822Z,97644.95
2023-03-26T11:41:27.565Z,97643.77
2023-03-26T11:46:40.005Z,97633.11
2023-03-26T11:51:43.883Z,97626.63
2023-03-26T11:57:05.410Z,97613.09
2023-03-26T12:02:11.534Z,97615.63
2023-03-26T12:07:17.443Z,97607.52
2023-03-26T12:12:20.374Z,97600.14
2023-03-26T12:17:34.741Z,97597.63
2023-03-26T12:22:38.699Z,97583.52
2023-03-26T12:27:50.541Z,97584.34
2023-03-26T12:32:57.797Z,97575.48
2023-03-26T12:38:14.818Z,97566.52
2023-03-26T12:44:54.770Z,97556.06
2023-03-26T12:48:53.816Z,97542.81
2023-03-26T12:54:23.815Z,97536.60
2023-03-26T13:00:09.397Z,97533.52
2023-03-26T13:05:17.897Z,97533.70
2023-03-26T13:10:50.809Z,97529.33
2023-03-26T13:15:57.795Z,97514.55
2023-03-26T13:21:11.312Z,97508.80
2023-03-26T13:27:00.306Z,97503.26
2023-03-26T13:32:24.105Z,97501.20
2023-03-26T13:37:36.446Z,97494.98
2023-03-26T13:43:04.636Z,97490.47
2023-03-26T13:48:18.167Z,97485.13
2023-03-26T13:53:27.495Z,97480.80
2023-03-26T13:58:41.823Z,97472.80
2023-03-26T14:04:00.264Z,97474.89
2023-03-26T14:09:12.711Z,97465.91
2023-03-26T14:14:23.545Z,97461.40
2023-03-26T14:20:02.400Z,97456.20
2023-03-26T14:25:39.218Z,97456.84
2023-03-26T14:30:56.558Z,97453.13
2023-03-26T14:36:14.979Z,97454.29
2023-03-26T14:41:33.139Z,97452.14
2023-03-26T14:46:40.970Z,97450.11
2023-03-26T14:52:05.856Z,97447.06
2023-03-26T14:57:33.180Z,97440.02
2023-03-26T15:03:09.933Z,97439.89
2023-03-26T15:08:40.629Z,97437.74
2023-03-26T15:14:16.589Z,97435.58
2023-03-26T15:19:41.786Z,97431.50
2023-03-26T15:25:12.735Z,97428.05
2023-03-26T15:30:30.611Z,97420.48
2023-03-26T15:36:00.505Z,97419.88
2023-03-26T15:41:05.475Z,97419.45
2023-03-26T15:46:26.348Z,97412.85
2023-03-26T15:51:59.005Z,97405.77
2023-03-26T15:57:16.725Z,97403.81
2023-03-26T16:03:16.345Z,97404.45
2023-03-26T16:08:25.935Z,97401.05
2023-03-26T16:13:30.802Z,97401.14
2023-03-26T16:18:37.283Z,97398.11
2023-03-26T16:23:47.566Z,97397.42
2023-03-26T16:28:53.627Z,97394.52
2023-03-26T16:34:09.287Z,97395.41
2023-03-26T16:39:18.784Z,97390.67
2023-03-26T16:44:37.956Z,97387.59
2023-03-26T16:50:08.888Z,97392.48
2023-03-26T16:55:39.371Z,97394.39
2023-03-26T17:00:48.197Z,97395.27
2023-03-26T17:06:02.203Z,97397.64
2023-03-26T17:11:57.658Z,97396.21
2023-03-26T17:17:36.897Z,97399.38
2023-03-26T17:22:45.151Z,97402.67
2023-03-26T17:28:28.642Z,97403.58
2023-03-26T17:33:38.777Z,97407.69
2023-03-26T17:38:40.605Z,97411.76
2023-03-26T17:43:51.905Z,97416.38
2023-03-26T17:49:06.832Z,97422.45
2023-03-26T17:54:27.473Z,97415.98
2023-03-26T17:59:29.387Z,97408.17
2023-03-26T18:04:39.032Z,97412.84
2023-03-26T18:10:18.723Z,97407.73
2023-03-26T18:15:32.450Z,97411.00
2023-03-26T18:20:37.160Z,97410.83
2023-03-26T18:25:41.087Z,97415.05
2023-03-26T18:30:48.425Z,97411.73
2023-03-26T18:35:54.421Z,97417.39
2023-03-26T18:40:56.540Z,97423.10
2023-03-26T18:45:58.662Z,97422.08
2023-03-26T18:51:05.032Z,97422.30
2023-03-26T18:56:28.549Z,97422.55
2023-03-26T19:01:34.181Z,97418.65
2023-03-26T19:06:41.378Z,97415.44
2023-03-26T19:11:45.316Z,97410.69
2023-03-26T19:16:56.515Z,97406.93
2023-03-26T19:21:59.647Z,97403.02
2023-03-26T19:27:02.685Z,97395.85
2023-03-26T19:32:29.488Z,97390.58
2023-03-26T19:37:32.410Z,97390.27
2023-03-26T19:42:43.100Z,97388.42
2023-03-26T19:48:00.072Z,97385.38
2023-03-26T19:53:22.456Z,97384.07
2023-03-26T19:58:26.585Z,97378.98
2023-03-26T20:03:36.954Z,97377.65
2023-03-26T20:08:40.663Z,97372.00
2023-03-26T20:13:42.528Z,97362.59
2023-03-26T20:18:44.265Z,97358.65
2023-03-26T20:23:46.138Z,97364.13
2023-03-26T20:28:52.713Z,97357.80
2023-03-26T20:33:56.536Z,97340.55
2023-03-26T20:38:58.301Z,97331.62
2023-03-26T20:44:00.085Z,97315.54
2023-03-26T20:49:01.803Z,97308.52
2023-03-26T20:54:05.274Z,97300.30
2023-03-26T20:59:10.927Z,97284.92
2023-03-26T21:04:14.608Z,97286.52
2023-03-26T21:09:23.960Z,97280.23
2023-03-26T21:14:41.188Z,97278.52
2023-03-26T21:19:43.871Z,97283.84
2023-03-26T21:25:03.506Z,97286.54
2023-03-26T21:30:16.471Z,97292.15
2023-03-26T21:35:19.105Z,97296.08
2023-03-26T21:40:21.144Z,97295.60
2023-03-26T21:45:43.918Z,97290.33
2023-03-26T21:50:48.949Z,97280.75
2023-03-26T21:56:17.548Z,97275.27
2023-03-26T22:01:24.332Z,97271.70
2023-03-26T22:06:37.102Z,97268.52
2023-03-26T22:11:41.536Z,97270.09
2023-03-26T22:16:43.307Z,97272.33
2023-03-26T22:21:45.109Z,97275.41
2023-03-26T22:26:47.643Z,97276.60
2023-03-26T22:31:49.469Z,97265.33
2023-03-26T22:36:52.233Z,97255.23
2023-03-26T22:41:54.643Z,97248.58
2023-03-26T22:46:57.031Z,97246.18
2023-03-26T22:51:58.700Z,97251.15
2023-03-26T22:57:00.713Z,97247.06
2023-03-26T23:02:02.882Z,97234.27
2023-03-26T23:07:05.905Z,97226.77
2023-03-26T23:12:08.510Z,97227.15
2023-03-26T23:17:14.740Z,97220.85
2023-03-26T23:22:17.263Z,97215.75
2023-03-26T23:27:22.467Z,97213.71
2023-03-26T23:32:28.243Z,97214.91
2023-03-26T23:37:35.026Z,97213.05
2023-03-26T23:42:38.037Z,97205.54
2023-03-26T23:47:42.894Z,97205.04
2023-03-26T23:52:47.031Z,97205.71
2023-03-26T23:57:48.987Z,97209.80
